Aviation Digital Data Service (ADDS)

Output produced by METARs form (1717 UTC 24 June 2019)
found at http://www.aviationweather.gov/metar/data/
 
METAR text: RCSS 241700Z 11008KT 9999 FEW012 SCT060 BKN120 26/24 Q1009 NOSIG RMK A2981
Conditions at: RCSS (SUNGSHAN/TAIPEI , TW) observed 1700 UTC 24 June 2019
Temperature: 26.0°C (79°F)
Dewpoint: 24.0°C (75°F) [RH = 89%]
Pressure (altimeter): 29.79 inches Hg (1009.0 mb)
Winds: from the ESE (110 degrees) at 9 MPH (8 knots; 4.1 m/s)
Visibility: 6 or more miles (10+ km)
Ceiling: 12000 feet AGL
Clouds: few clouds at 1200 feet AGL
scattered clouds at 6000 feet AGL
broken clouds at 12000 feet AGL
Weather: no significant weather observed at this time

METAR text: RCSS 241600Z 09010KT 9999 FEW015 SCT060 BKN120 25/24 Q1009 NOSIG RMK A2982
Conditions at: RCSS (SUNGSHAN/TAIPEI , TW) observed 1600 UTC 24 June 2019
Temperature: 25.0°C (77°F)
Dewpoint: 24.0°C (75°F) [RH = 94%]
Pressure (altimeter): 29.79 inches Hg (1009.0 mb)
Winds: from the E (90 degrees) at 12 MPH (10 knots; 5.1 m/s)
Visibility: 6 or more miles (10+ km)
Ceiling: 12000 feet AGL
Clouds: few clouds at 1500 feet AGL
scattered clouds at 6000 feet AGL
broken clouds at 12000 feet AGL
Weather: no significant weather observed at this time

METAR text: RCSS 241530Z 10011KT 9999 FEW015 SCT060 BKN120 25/24 Q1009 NOSIG RMK A2982
Conditions at: RCSS (SUNGSHAN/TAIPEI , TW) observed 1530 UTC 24 June 2019
Temperature: 25.0°C (77°F)
Dewpoint: 24.0°C (75°F) [RH = 94%]
Pressure (altimeter): 29.79 inches Hg (1009.0 mb)
Winds: from the E (100 degrees) at 13 MPH (11 knots; 5.7 m/s)
Visibility: 6 or more miles (10+ km)
Ceiling: 12000 feet AGL
Clouds: few clouds at 1500 feet AGL
scattered clouds at 6000 feet AGL
broken clouds at 12000 feet AGL
Weather: no significant weather observed at this time

METAR text: RCSS 241500Z 10008KT 9999 FEW015 SCT060 BKN100 26/24 Q1010 NOSIG RMK A2983
Conditions at: RCSS (SUNGSHAN/TAIPEI , TW) observed 1500 UTC 24 June 2019
Temperature: 26.0°C (79°F)
Dewpoint: 24.0°C (75°F) [RH = 89%]
Pressure (altimeter): 29.82 inches Hg (1010.0 mb)
Winds: from the E (100 degrees) at 9 MPH (8 knots; 4.1 m/s)
Visibility: 6 or more miles (10+ km)
Ceiling: 10000 feet AGL
Clouds: few clouds at 1500 feet AGL
scattered clouds at 6000 feet AGL
broken clouds at 10000 feet AGL
Weather: no significant weather observed at this time

METAR text: RCSS 241430Z 07008KT 9999 FEW015 SCT060 BKN100 26/24 Q1010 NOSIG RMK A2984
Conditions at: RCSS (SUNGSHAN/TAIPEI , TW) observed 1430 UTC 24 June 2019
Temperature: 26.0°C (79°F)
Dewpoint: 24.0°C (75°F) [RH = 89%]
Pressure (altimeter): 29.82 inches Hg (1010.0 mb)
Winds: from the ENE (70 degrees) at 9 MPH (8 knots; 4.1 m/s)
Visibility: 6 or more miles (10+ km)
Ceiling: 10000 feet AGL
Clouds: few clouds at 1500 feet AGL
scattered clouds at 6000 feet AGL
broken clouds at 10000 feet AGL
Weather: no significant weather observed at this time

METAR text: RCSS 241400Z 09009KT 9999 FEW015 SCT060 BKN120 25/24 Q1010 NOSIG RMK A2984
Conditions at: RCSS (SUNGSHAN/TAIPEI , TW) observed 1400 UTC 24 June 2019
Temperature: 25.0°C (77°F)
Dewpoint: 24.0°C (75°F) [RH = 94%]
Pressure (altimeter): 29.82 inches Hg (1010.0 mb)
Winds: from the E (90 degrees) at 10 MPH (9 knots; 4.6 m/s)
Visibility: 6 or more miles (10+ km)
Ceiling: 12000 feet AGL
Clouds: few clouds at 1500 feet AGL
scattered clouds at 6000 feet AGL
broken clouds at 12000 feet AGL
Weather: no significant weather observed at this time

METAR text: RCSS 241330Z 10009KT 9999 FEW015 SCT060 BKN120 25/24 Q1010 NOSIG RMK A2984
Conditions at: RCSS (SUNGSHAN/TAIPEI , TW) observed 1330 UTC 24 June 2019
Temperature: 25.0°C (77°F)
Dewpoint: 24.0°C (75°F) [RH = 94%]
Pressure (altimeter): 29.82 inches Hg (1010.0 mb)
Winds: from the E (100 degrees) at 10 MPH (9 knots; 4.6 m/s)
Visibility: 6 or more miles (10+ km)
Ceiling: 12000 feet AGL
Clouds: few clouds at 1500 feet AGL
scattered clouds at 6000 feet AGL
broken clouds at 12000 feet AGL
Weather: no significant weather observed at this time

METAR text: RCSS 241300Z 09006KT 9999 FEW015 BKN120 25/24 Q1010 NOSIG RMK A2984
Conditions at: RCSS (SUNGSHAN/TAIPEI , TW) observed 1300 UTC 24 June 2019
Temperature: 25.0°C (77°F)
Dewpoint: 24.0°C (75°F) [RH = 94%]
Pressure (altimeter): 29.82 inches Hg (1010.0 mb)
Winds: from the E (90 degrees) at 7 MPH (6 knots; 3.1 m/s)
Visibility: 6 or more miles (10+ km)
Ceiling: 12000 feet AGL
Clouds: few clouds at 1500 feet AGL
broken clouds at 12000 feet AGL
Weather: no significant weather observed at this time

METAR text: RCSS 241230Z 09010KT 9999 FEW012 BKN120 25/24 Q1009 NOSIG RMK A2981
Conditions at: RCSS (SUNGSHAN/TAIPEI , TW) observed 1230 UTC 24 June 2019
Temperature: 25.0°C (77°F)
Dewpoint: 24.0°C (75°F) [RH = 94%]
Pressure (altimeter): 29.79 inches Hg (1009.0 mb)
Winds: from the E (90 degrees) at 12 MPH (10 knots; 5.1 m/s)
Visibility: 6 or more miles (10+ km)
Ceiling: 12000 feet AGL
Clouds: few clouds at 1200 feet AGL
broken clouds at 12000 feet AGL
Weather: no significant weather observed at this time

METAR text: RCSS 241200Z 09008KT 9999 FEW012 SCT040 BKN120 25/24 Q1009 NOSIG RMK A2981
Conditions at: RCSS (SUNGSHAN/TAIPEI , TW) observed 1200 UTC 24 June 2019
Temperature: 25.0°C (77°F)
Dewpoint: 24.0°C (75°F) [RH = 94%]
Pressure (altimeter): 29.79 inches Hg (1009.0 mb)
Winds: from the E (90 degrees) at 9 MPH (8 knots; 4.1 m/s)
Visibility: 6 or more miles (10+ km)
Ceiling: 12000 feet AGL
Clouds: few clouds at 1200 feet AGL
scattered clouds at 4000 feet AGL
broken clouds at 12000 feet AGL
Weather: no significant weather observed at this time

METAR text: RCSS 241130Z 09008KT 9999 FEW012 BKN045 BKN120 25/24 Q1009 NOSIG RMK A2981
Conditions at: RCSS (SUNGSHAN/TAIPEI , TW) observed 1130 UTC 24 June 2019
Temperature: 25.0°C (77°F)
Dewpoint: 24.0°C (75°F) [RH = 94%]
Pressure (altimeter): 29.79 inches Hg (1009.0 mb)
Winds: from the E (90 degrees) at 9 MPH (8 knots; 4.1 m/s)
Visibility: 6 or more miles (10+ km)
Ceiling: 4500 feet AGL
Clouds: few clouds at 1200 feet AGL
broken clouds at 4500 feet AGL
broken clouds at 12000 feet AGL
Weather: no significant weather observed at this time

METAR text: RCSS 241120Z 09009KT 9999 FEW012 SCT045 BKN120 25/24 Q1009 NOSIG RMK A2981
Conditions at: RCSS (SUNGSHAN/TAIPEI , TW) observed 1120 UTC 24 June 2019
Temperature: 25.0°C (77°F)
Dewpoint: 24.0°C (75°F) [RH = 94%]
Pressure (altimeter): 29.79 inches Hg (1009.0 mb)
Winds: from the E (90 degrees) at 10 MPH (9 knots; 4.6 m/s)
Visibility: 6 or more miles (10+ km)
Ceiling: 12000 feet AGL
Clouds: few clouds at 1200 feet AGL
scattered clouds at 4500 feet AGL
broken clouds at 12000 feet AGL
Weather: no significant weather observed at this time

METAR text: RCSS 241100Z 10010KT 9999 -DZ FEW008 SCT035 BKN060 25/24 Q1009 NOSIG RMK A2981
Conditions at: RCSS (SUNGSHAN/TAIPEI , TW) observed 1100 UTC 24 June 2019
Temperature: 25.0°C (77°F)
Dewpoint: 24.0°C (75°F) [RH = 94%]
Pressure (altimeter): 29.79 inches Hg (1009.0 mb)
Winds: from the E (100 degrees) at 12 MPH (10 knots; 5.1 m/s)
Visibility: 6 or more miles (10+ km)
Ceiling: 6000 feet AGL
Clouds: few clouds at 800 feet AGL
scattered clouds at 3500 feet AGL
broken clouds at 6000 feet AGL
Weather: -DZ  (light drizzle)

METAR text: RCSS 241030Z 10011KT 9999 -DZ FEW008 SCT030 BKN055 26/24 Q1009 NOSIG RMK A2980
Conditions at: RCSS (SUNGSHAN/TAIPEI , TW) observed 1030 UTC 24 June 2019
Temperature: 26.0°C (79°F)
Dewpoint: 24.0°C (75°F) [RH = 89%]
Pressure (altimeter): 29.79 inches Hg (1009.0 mb)
Winds: from the E (100 degrees) at 13 MPH (11 knots; 5.7 m/s)
Visibility: 6 or more miles (10+ km)
Ceiling: 5500 feet AGL
Clouds: few clouds at 800 feet AGL
scattered clouds at 3000 feet AGL
broken clouds at 5500 feet AGL
Weather: -DZ  (light drizzle)

METAR text: RCSS 241000Z 10011KT 9999 -DZ FEW007 BKN035 BKN055 26/24 Q1009 NOSIG RMK A2980
Conditions at: RCSS (SUNGSHAN/TAIPEI , TW) observed 1000 UTC 24 June 2019
Temperature: 26.0°C (79°F)
Dewpoint: 24.0°C (75°F) [RH = 89%]
Pressure (altimeter): 29.79 inches Hg (1009.0 mb)
Winds: from the E (100 degrees) at 13 MPH (11 knots; 5.7 m/s)
Visibility: 6 or more miles (10+ km)
Ceiling: 3500 feet AGL
Clouds: few clouds at 700 feet AGL
broken clouds at 3500 feet AGL
broken clouds at 5500 feet AGL
Weather: -DZ  (light drizzle)

METAR text: RCSS 240930Z 09009KT 9999 -DZ FEW005 SCT035 BKN060 26/24 Q1008 NOSIG RMK A2979
Conditions at: RCSS (SUNGSHAN/TAIPEI , TW) observed 0930 UTC 24 June 2019
Temperature: 26.0°C (79°F)
Dewpoint: 24.0°C (75°F) [RH = 89%]
Pressure (altimeter): 29.76 inches Hg (1008.0 mb)
Winds: from the E (90 degrees) at 10 MPH (9 knots; 4.6 m/s)
Visibility: 6 or more miles (10+ km)
Ceiling: 6000 feet AGL
Clouds: few clouds at 500 feet AGL
scattered clouds at 3500 feet AGL
broken clouds at 6000 feet AGL
Weather: -DZ  (light drizzle)

METAR text: RCSS 240900Z 09009KT 9999 -DZ FEW007 SCT030 BKN055 26/24 Q1008 NOSIG RMK A2979
Conditions at: RCSS (SUNGSHAN/TAIPEI , TW) observed 0900 UTC 24 June 2019
Temperature: 26.0°C (79°F)
Dewpoint: 24.0°C (75°F) [RH = 89%]
Pressure (altimeter): 29.76 inches Hg (1008.0 mb)
Winds: from the E (90 degrees) at 10 MPH (9 knots; 4.6 m/s)
Visibility: 6 or more miles (10+ km)
Ceiling: 5500 feet AGL
Clouds: few clouds at 700 feet AGL
scattered clouds at 3000 feet AGL
broken clouds at 5500 feet AGL
Weather: -DZ  (light drizzle)

METAR text: RCSS 240830Z 09008KT 9999 -RA FEW006 SCT035 BKN060 26/24 Q1008 NOSIG RMK A2979
Conditions at: RCSS (SUNGSHAN/TAIPEI , TW) observed 0830 UTC 24 June 2019
Temperature: 26.0°C (79°F)
Dewpoint: 24.0°C (75°F) [RH = 89%]
Pressure (altimeter): 29.76 inches Hg (1008.0 mb)
Winds: from the E (90 degrees) at 9 MPH (8 knots; 4.1 m/s)
Visibility: 6 or more miles (10+ km)
Ceiling: 6000 feet AGL
Clouds: few clouds at 600 feet AGL
scattered clouds at 3500 feet AGL
broken clouds at 6000 feet AGL
Weather: -RA  (light rain)

METAR text: RCSS 240800Z 09008KT 9999 -RA FEW008 SCT030 BKN055 26/24 Q1008 NOSIG RMK A2979
Conditions at: RCSS (SUNGSHAN/TAIPEI , TW) observed 0800 UTC 24 June 2019
Temperature: 26.0°C (79°F)
Dewpoint: 24.0°C (75°F) [RH = 89%]
Pressure (altimeter): 29.76 inches Hg (1008.0 mb)
Winds: from the E (90 degrees) at 9 MPH (8 knots; 4.1 m/s)
Visibility: 6 or more miles (10+ km)
Ceiling: 5500 feet AGL
Clouds: few clouds at 800 feet AGL
scattered clouds at 3000 feet AGL
broken clouds at 5500 feet AGL
Weather: -RA  (light rain)

METAR text: RCSS 240730Z 10007KT 9999 -RA FEW005 BKN030 BKN050 27/24 Q1008 NOSIG RMK A2979
Conditions at: RCSS (SUNGSHAN/TAIPEI , TW) observed 0730 UTC 24 June 2019
Temperature: 27.0°C (81°F)
Dewpoint: 24.0°C (75°F) [RH = 84%]
Pressure (altimeter): 29.76 inches Hg (1008.0 mb)
Winds: from the E (100 degrees) at 8 MPH (7 knots; 3.6 m/s)
Visibility: 6 or more miles (10+ km)
Ceiling: 3000 feet AGL
Clouds: few clouds at 500 feet AGL
broken clouds at 3000 feet AGL
broken clouds at 5000 feet AGL
Weather: -RA  (light rain)

METAR text: RCSS 240700Z 09007KT 9999 -RA FEW008 SCT025 BKN055 27/25 Q1008 NOSIG RMK A2979
Conditions at: RCSS (SUNGSHAN/TAIPEI , TW) observed 0700 UTC 24 June 2019
Temperature: 27.0°C (81°F)
Dewpoint: 25.0°C (77°F) [RH = 89%]
Pressure (altimeter): 29.76 inches Hg (1008.0 mb)
Winds: from the E (90 degrees) at 8 MPH (7 knots; 3.6 m/s)
Visibility: 6 or more miles (10+ km)
Ceiling: 5500 feet AGL
Clouds: few clouds at 800 feet AGL
scattered clouds at 2500 feet AGL
broken clouds at 5500 feet AGL
Weather: -RA  (light rain)

METAR text: RCSS 240630Z 11006KT 9999 -RA FEW005 SCT040 BKN070 27/24 Q1008 NOSIG RMK A2979
Conditions at: RCSS (SUNGSHAN/TAIPEI , TW) observed 0630 UTC 24 June 2019
Temperature: 27.0°C (81°F)
Dewpoint: 24.0°C (75°F) [RH = 84%]
Pressure (altimeter): 29.76 inches Hg (1008.0 mb)
Winds: from the ESE (110 degrees) at 7 MPH (6 knots; 3.1 m/s)
Visibility: 6 or more miles (10+ km)
Ceiling: 7000 feet AGL
Clouds: few clouds at 500 feet AGL
scattered clouds at 4000 feet AGL
broken clouds at 7000 feet AGL
Weather: -RA  (light rain)

METAR text: RCSS 240600Z 09006KT 9999 -RA FEW004 SCT035 BKN060 26/24 Q1008 NOSIG RMK A2979 RA AMT 0.4MM
Conditions at: RCSS (SUNGSHAN/TAIPEI , TW) observed 0600 UTC 24 June 2019
Temperature: 26.0°C (79°F)
Dewpoint: 24.0°C (75°F) [RH = 89%]
Pressure (altimeter): 29.76 inches Hg (1008.0 mb)
Winds: from the E (90 degrees) at 7 MPH (6 knots; 3.1 m/s)
Visibility: 6 or more miles (10+ km)
Ceiling: 6000 feet AGL
Clouds: few clouds at 400 feet AGL
scattered clouds at 3500 feet AGL
broken clouds at 6000 feet AGL
Weather: -RA  (light rain)

METAR text: RCSS 240530Z 09006KT 9999 -SHRA FEW003 SCT035 BKN060 26/24 Q1009 NOSIG RMK A2980
Conditions at: RCSS (SUNGSHAN/TAIPEI , TW) observed 0530 UTC 24 June 2019
Temperature: 26.0°C (79°F)
Dewpoint: 24.0°C (75°F) [RH = 89%]
Pressure (altimeter): 29.79 inches Hg (1009.0 mb)
Winds: from the E (90 degrees) at 7 MPH (6 knots; 3.1 m/s)
Visibility: 6 or more miles (10+ km)
Ceiling: 6000 feet AGL
Clouds: few clouds at 300 feet AGL
scattered clouds at 3500 feet AGL
broken clouds at 6000 feet AGL
Weather: -SHRA  (light rain showers)

METAR text: RCSS 240500Z 10007KT 9999 -SHRA FEW010 BKN030 BKN060 26/24 Q1009 NOSIG RMK A2980 RA AMT 0.8MM
Conditions at: RCSS (SUNGSHAN/TAIPEI , TW) observed 0500 UTC 24 June 2019
Temperature: 26.0°C (79°F)
Dewpoint: 24.0°C (75°F) [RH = 89%]
Pressure (altimeter): 29.79 inches Hg (1009.0 mb)
Winds: from the E (100 degrees) at 8 MPH (7 knots; 3.6 m/s)
Visibility: 6 or more miles (10+ km)
Ceiling: 3000 feet AGL
Clouds: few clouds at 1000 feet AGL
broken clouds at 3000 feet AGL
broken clouds at 6000 feet AGL
Weather: -SHRA  (light rain showers)

METAR text: RCSS 240430Z 10008KT 9999 -SHRA FEW010 BKN030 BKN060 26/24 Q1009 NOSIG RMK A2980
Conditions at: RCSS (SUNGSHAN/TAIPEI , TW) observed 0430 UTC 24 June 2019
Temperature: 26.0°C (79°F)
Dewpoint: 24.0°C (75°F) [RH = 89%]
Pressure (altimeter): 29.79 inches Hg (1009.0 mb)
Winds: from the E (100 degrees) at 9 MPH (8 knots; 4.1 m/s)
Visibility: 6 or more miles (10+ km)
Ceiling: 3000 feet AGL
Clouds: few clouds at 1000 feet AGL
broken clouds at 3000 feet AGL
broken clouds at 6000 feet AGL
Weather: -SHRA  (light rain showers)

METAR text: RCSS 240400Z 09010KT 9999 -SHRA FEW010 BKN030 BKN060 26/24 Q1009 NOSIG RMK A2981 RA AMT 0.6MM
Conditions at: RCSS (SUNGSHAN/TAIPEI , TW) observed 0400 UTC 24 June 2019
Temperature: 26.0°C (79°F)
Dewpoint: 24.0°C (75°F) [RH = 89%]
Pressure (altimeter): 29.79 inches Hg (1009.0 mb)
Winds: from the E (90 degrees) at 12 MPH (10 knots; 5.1 m/s)
Visibility: 6 or more miles (10+ km)
Ceiling: 3000 feet AGL
Clouds: few clouds at 1000 feet AGL
broken clouds at 3000 feet AGL
broken clouds at 6000 feet AGL
Weather: -SHRA  (light rain showers)

METAR text: RCSS 240330Z 09008KT 070V140 8000 -SHRA FEW010 BKN030 BKN060 26/24 Q1009 NOSIG RMK A2981
Conditions at: RCSS (SUNGSHAN/TAIPEI , TW) observed 0330 UTC 24 June 2019
Temperature: 26.0°C (79°F)
Dewpoint: 24.0°C (75°F) [RH = 89%]
Pressure (altimeter): 29.79 inches Hg (1009.0 mb)
Winds: from the E (90 degrees) at 9 MPH (8 knots; 4.1 m/s)
Visibility: 5 miles ( 8 km)
Ceiling: 3000 feet AGL
Clouds: few clouds at 1000 feet AGL
broken clouds at 3000 feet AGL
broken clouds at 6000 feet AGL
Weather: -SHRA  (light rain showers)

METAR text: RCSS 240300Z 10008KT 8000 -SHRA FEW010 BKN035 BKN060 26/25 Q1009 NOSIG RMK A2981 RA AMT 0.6MM
Conditions at: RCSS (SUNGSHAN/TAIPEI , TW) observed 0300 UTC 24 June 2019
Temperature: 26.0°C (79°F)
Dewpoint: 25.0°C (77°F) [RH = 94%]
Pressure (altimeter): 29.79 inches Hg (1009.0 mb)
Winds: from the E (100 degrees) at 9 MPH (8 knots; 4.1 m/s)
Visibility: 5 miles ( 8 km)
Ceiling: 3500 feet AGL
Clouds: few clouds at 1000 feet AGL
broken clouds at 3500 feet AGL
broken clouds at 6000 feet AGL
Weather: -SHRA  (light rain showers)

METAR text: RCSS 240230Z 10008KT 8000 -SHRA FEW010 BKN035 BKN060 26/25 Q1009 NOSIG RMK A2982
Conditions at: RCSS (SUNGSHAN/TAIPEI , TW) observed 0230 UTC 24 June 2019
Temperature: 26.0°C (79°F)
Dewpoint: 25.0°C (77°F) [RH = 94%]
Pressure (altimeter): 29.79 inches Hg (1009.0 mb)
Winds: from the E (100 degrees) at 9 MPH (8 knots; 4.1 m/s)
Visibility: 5 miles ( 8 km)
Ceiling: 3500 feet AGL
Clouds: few clouds at 1000 feet AGL
broken clouds at 3500 feet AGL
broken clouds at 6000 feet AGL
Weather: -SHRA  (light rain showers)

METAR text: RCSS 240200Z 11007KT 8000 -SHRA FEW008 BKN035 BKN060 26/25 Q1009 NOSIG RMK A2982 RA AMT 1.4MM
Conditions at: RCSS (SUNGSHAN/TAIPEI , TW) observed 0200 UTC 24 June 2019
Temperature: 26.0°C (79°F)
Dewpoint: 25.0°C (77°F) [RH = 94%]
Pressure (altimeter): 29.79 inches Hg (1009.0 mb)
Winds: from the ESE (110 degrees) at 8 MPH (7 knots; 3.6 m/s)
Visibility: 5 miles ( 8 km)
Ceiling: 3500 feet AGL
Clouds: few clouds at 800 feet AGL
broken clouds at 3500 feet AGL
broken clouds at 6000 feet AGL
Weather: -SHRA  (light rain showers)

METAR text: RCSS 240130Z 10007KT 8000 -SHRA FEW008 BKN028 BKN050 25/24 Q1009 NOSIG RMK A2982
Conditions at: RCSS (SUNGSHAN/TAIPEI , TW) observed 0130 UTC 24 June 2019
Temperature: 25.0°C (77°F)
Dewpoint: 24.0°C (75°F) [RH = 94%]
Pressure (altimeter): 29.79 inches Hg (1009.0 mb)
Winds: from the E (100 degrees) at 8 MPH (7 knots; 3.6 m/s)
Visibility: 5 miles ( 8 km)
Ceiling: 2800 feet AGL
Clouds: few clouds at 800 feet AGL
broken clouds at 2800 feet AGL
broken clouds at 5000 feet AGL
Weather: -SHRA  (light rain showers)

METAR text: RCSS 240100Z 10010KT 8000 -SHRA FEW008 BKN028 BKN050 25/24 Q1009 NOSIG RMK A2981 RA AMT 0.6MM
Conditions at: RCSS (SUNGSHAN/TAIPEI , TW) observed 0100 UTC 24 June 2019
Temperature: 25.0°C (77°F)
Dewpoint: 24.0°C (75°F) [RH = 94%]
Pressure (altimeter): 29.79 inches Hg (1009.0 mb)
Winds: from the E (100 degrees) at 12 MPH (10 knots; 5.1 m/s)
Visibility: 5 miles ( 8 km)
Ceiling: 2800 feet AGL
Clouds: few clouds at 800 feet AGL
broken clouds at 2800 feet AGL
broken clouds at 5000 feet AGL
Weather: -SHRA  (light rain showers)

METAR text: RCSS 240030Z 10010KT 9000 -SHRA SCT008 BKN030 BKN050 25/24 Q1009 NOSIG RMK A2980
Conditions at: RCSS (SUNGSHAN/TAIPEI , TW) observed 0030 UTC 24 June 2019
Temperature: 25.0°C (77°F)
Dewpoint: 24.0°C (75°F) [RH = 94%]
Pressure (altimeter): 29.79 inches Hg (1009.0 mb)
Winds: from the E (100 degrees) at 12 MPH (10 knots; 5.1 m/s)
Visibility: 6 miles ( 9 km)
Ceiling: 3000 feet AGL
Clouds: scattered clouds at 800 feet AGL
broken clouds at 3000 feet AGL
broken clouds at 5000 feet AGL
Weather: -SHRA  (light rain showers)

METAR text: RCSS 240000Z 09011KT 9999 -SHRA SCT008 BKN030 BKN050 25/24 Q1008 NOSIG RMK A2978
Conditions at: RCSS (SUNGSHAN/TAIPEI , TW) observed 0000 UTC 24 June 2019
Temperature: 25.0°C (77°F)
Dewpoint: 24.0°C (75°F) [RH = 94%]
Pressure (altimeter): 29.76 inches Hg (1008.0 mb)
Winds: from the E (90 degrees) at 13 MPH (11 knots; 5.7 m/s)
Visibility: 6 or more miles (10+ km)
Ceiling: 3000 feet AGL
Clouds: scattered clouds at 800 feet AGL
broken clouds at 3000 feet AGL
broken clouds at 5000 feet AGL
Weather: -SHRA  (light rain showers)

METAR text: RCSS 232330Z 09010KT 9999 -SHRA FEW008 SCT030 BKN050 25/23 Q1008 NOSIG RMK A2978
Conditions at: RCSS (SUNGSHAN/TAIPEI , TW) observed 2330 UTC 23 June 2019
Temperature: 25.0°C (77°F)
Dewpoint: 23.0°C (73°F) [RH = 89%]
Pressure (altimeter): 29.76 inches Hg (1008.0 mb)
Winds: from the E (90 degrees) at 12 MPH (10 knots; 5.1 m/s)
Visibility: 6 or more miles (10+ km)
Ceiling: 5000 feet AGL
Clouds: few clouds at 800 feet AGL
scattered clouds at 3000 feet AGL
broken clouds at 5000 feet AGL
Weather: -SHRA  (light rain showers)

METAR text: RCSS 232300Z 10012KT 9999 -SHRA FEW006 SCT030 BKN050 24/23 Q1008 NOSIG RMK A2978 RA AMT 1.4MM
Conditions at: RCSS (SUNGSHAN/TAIPEI , TW) observed 2300 UTC 23 June 2019
Temperature: 24.0°C (75°F)
Dewpoint: 23.0°C (73°F) [RH = 94%]
Pressure (altimeter): 29.76 inches Hg (1008.0 mb)
Winds: from the E (100 degrees) at 14 MPH (12 knots; 6.2 m/s)
Visibility: 6 or more miles (10+ km)
Ceiling: 5000 feet AGL
Clouds: few clouds at 600 feet AGL
scattered clouds at 3000 feet AGL
broken clouds at 5000 feet AGL
Weather: -SHRA  (light rain showers)

METAR text: RCSS 232230Z 10010KT 8000 -SHRA FEW005 BKN030 BKN050 24/23 Q1008 NOSIG RMK A2978
Conditions at: RCSS (SUNGSHAN/TAIPEI , TW) observed 2230 UTC 23 June 2019
Temperature: 24.0°C (75°F)
Dewpoint: 23.0°C (73°F) [RH = 94%]
Pressure (altimeter): 29.76 inches Hg (1008.0 mb)
Winds: from the E (100 degrees) at 12 MPH (10 knots; 5.1 m/s)
Visibility: 5 miles ( 8 km)
Ceiling: 3000 feet AGL
Clouds: few clouds at 500 feet AGL
broken clouds at 3000 feet AGL
broken clouds at 5000 feet AGL
Weather: -SHRA  (light rain showers)

METAR text: RCSS 232200Z 09010KT 8000 -SHRA FEW006 SCT030 BKN050 24/23 Q1008 NOSIG RMK A2978 RA AMT 1.2MM
Conditions at: RCSS (SUNGSHAN/TAIPEI , TW) observed 2200 UTC 23 June 2019
Temperature: 24.0°C (75°F)
Dewpoint: 23.0°C (73°F) [RH = 94%]
Pressure (altimeter): 29.76 inches Hg (1008.0 mb)
Winds: from the E (90 degrees) at 12 MPH (10 knots; 5.1 m/s)
Visibility: 5 miles ( 8 km)
Ceiling: 5000 feet AGL
Clouds: few clouds at 600 feet AGL
scattered clouds at 3000 feet AGL
broken clouds at 5000 feet AGL
Weather: -SHRA  (light rain showers)

METAR text: RCSS 232100Z 10011KT 9999 -RA FEW006 SCT040 BKN080 24/23 Q1007 NOSIG RMK A2975
Conditions at: RCSS (SUNGSHAN/TAIPEI , TW) observed 2100 UTC 23 June 2019
Temperature: 24.0°C (75°F)
Dewpoint: 23.0°C (73°F) [RH = 94%]
Pressure (altimeter): 29.73 inches Hg (1007.0 mb)
Winds: from the E (100 degrees) at 13 MPH (11 knots; 5.7 m/s)
Visibility: 6 or more miles (10+ km)
Ceiling: 8000 feet AGL
Clouds: few clouds at 600 feet AGL
scattered clouds at 4000 feet AGL
broken clouds at 8000 feet AGL
Weather: -RA  (light rain)

METAR text: RCSS 232000Z 10010KT 9999 -RA FEW006 BKN040 BKN060 25/24 Q1006 NOSIG RMK A2973 RA AMT 0.2MM
Conditions at: RCSS (SUNGSHAN/TAIPEI , TW) observed 2000 UTC 23 June 2019
Temperature: 25.0°C (77°F)
Dewpoint: 24.0°C (75°F) [RH = 94%]
Pressure (altimeter): 29.70 inches Hg (1006.0 mb)
Winds: from the E (100 degrees) at 12 MPH (10 knots; 5.1 m/s)
Visibility: 6 or more miles (10+ km)
Ceiling: 4000 feet AGL
Clouds: few clouds at 600 feet AGL
broken clouds at 4000 feet AGL
broken clouds at 6000 feet AGL
Weather: -RA  (light rain)

METAR text: RCSS 231900Z 10008KT 9000 -RA FEW006 BKN030 BKN060 25/24 Q1006 NOSIG RMK A2973 RA AMT 0.2MM
Conditions at: RCSS (SUNGSHAN/TAIPEI , TW) observed 1900 UTC 23 June 2019
Temperature: 25.0°C (77°F)
Dewpoint: 24.0°C (75°F) [RH = 94%]
Pressure (altimeter): 29.70 inches Hg (1006.0 mb)
Winds: from the E (100 degrees) at 9 MPH (8 knots; 4.1 m/s)
Visibility: 6 miles ( 9 km)
Ceiling: 3000 feet AGL
Clouds: few clouds at 600 feet AGL
broken clouds at 3000 feet AGL
broken clouds at 6000 feet AGL
Weather: -RA  (light rain)

METAR text: RCSS 231800Z 09006KT 9999 -SHRA FEW006 SCT030 BKN090 25/24 Q1007 NOSIG RMK A2974 RA AMT 0.2MM
Conditions at: RCSS (SUNGSHAN/TAIPEI , TW) observed 1800 UTC 23 June 2019
Temperature: 25.0°C (77°F)
Dewpoint: 24.0°C (75°F) [RH = 94%]
Pressure (altimeter): 29.73 inches Hg (1007.0 mb)
Winds: from the E (90 degrees) at 7 MPH (6 knots; 3.1 m/s)
Visibility: 6 or more miles (10+ km)
Ceiling: 9000 feet AGL
Clouds: few clouds at 600 feet AGL
scattered clouds at 3000 feet AGL
broken clouds at 9000 feet AGL
Weather: -SHRA  (light rain showers)

METAR text: RCSS 231700Z 09007KT 9000 -SHRA FEW006 SCT030 BKN090 25/24 Q1006 NOSIG RMK A2973
Conditions at: RCSS (SUNGSHAN/TAIPEI , TW) observed 1700 UTC 23 June 2019
Temperature: 25.0°C (77°F)
Dewpoint: 24.0°C (75°F) [RH = 94%]
Pressure (altimeter): 29.70 inches Hg (1006.0 mb)
Winds: from the E (90 degrees) at 8 MPH (7 knots; 3.6 m/s)
Visibility: 6 miles ( 9 km)
Ceiling: 9000 feet AGL
Clouds: few clouds at 600 feet AGL
scattered clouds at 3000 feet AGL
broken clouds at 9000 feet AGL
Weather: -SHRA  (light rain showers)

METAR text: RCSS 231600Z 10005KT 9999 -SHRA FEW006 SCT050 BKN090 25/24 Q1007 NOSIG RMK A2974 RA AMT 0.4MM
Conditions at: RCSS (SUNGSHAN/TAIPEI , TW) observed 1600 UTC 23 June 2019
Temperature: 25.0°C (77°F)
Dewpoint: 24.0°C (75°F) [RH = 94%]
Pressure (altimeter): 29.73 inches Hg (1007.0 mb)
Winds: from the E (100 degrees) at 6 MPH (5 knots; 2.6 m/s)
Visibility: 6 or more miles (10+ km)
Ceiling: 9000 feet AGL
Clouds: few clouds at 600 feet AGL
scattered clouds at 5000 feet AGL
broken clouds at 9000 feet AGL
Weather: -SHRA  (light rain showers)

METAR text: RCSS 231530Z 09004KT 9999 -SHRA FEW006 SCT025 BKN060 25/24 Q1007 NOSIG RMK A2975
Conditions at: RCSS (SUNGSHAN/TAIPEI , TW) observed 1530 UTC 23 June 2019
Temperature: 25.0°C (77°F)
Dewpoint: 24.0°C (75°F) [RH = 94%]
Pressure (altimeter): 29.73 inches Hg (1007.0 mb)
Winds: from the E (90 degrees) at 5 MPH (4 knots; 2.1 m/s)
Visibility: 6 or more miles (10+ km)
Ceiling: 6000 feet AGL
Clouds: few clouds at 600 feet AGL
scattered clouds at 2500 feet AGL
broken clouds at 6000 feet AGL
Weather: -SHRA  (light rain showers)

METAR text: RCSS 231500Z 09004KT 9999 -SHRA FEW006 BKN022 BKN060 25/24 Q1007 NOSIG RMK A2975 RA AMT 1.0MM
Conditions at: RCSS (SUNGSHAN/TAIPEI , TW) observed 1500 UTC 23 June 2019
Temperature: 25.0°C (77°F)
Dewpoint: 24.0°C (75°F) [RH = 94%]
Pressure (altimeter): 29.73 inches Hg (1007.0 mb)
Winds: from the E (90 degrees) at 5 MPH (4 knots; 2.1 m/s)
Visibility: 6 or more miles (10+ km)
Ceiling: 2200 feet AGL
Clouds: few clouds at 600 feet AGL
broken clouds at 2200 feet AGL
broken clouds at 6000 feet AGL
Weather: -SHRA  (light rain showers)

METAR text: RCSS 231430Z 09004KT 9999 -SHRA FEW007 BKN022 BKN090 25/24 Q1007 NOSIG RMK A2976
Conditions at: RCSS (SUNGSHAN/TAIPEI , TW) observed 1430 UTC 23 June 2019
Temperature: 25.0°C (77°F)
Dewpoint: 24.0°C (75°F) [RH = 94%]
Pressure (altimeter): 29.73 inches Hg (1007.0 mb)
Winds: from the E (90 degrees) at 5 MPH (4 knots; 2.1 m/s)
Visibility: 6 or more miles (10+ km)
Ceiling: 2200 feet AGL
Clouds: few clouds at 700 feet AGL
broken clouds at 2200 feet AGL
broken clouds at 9000 feet AGL
Weather: -SHRA  (light rain showers)

METAR text: RCSS 231400Z 09005KT 9999 -SHRA FEW008 BKN025 BKN090 25/24 Q1008 NOSIG RMK A2977 RA AMT 0.4MM
Conditions at: RCSS (SUNGSHAN/TAIPEI , TW) observed 1400 UTC 23 June 2019
Temperature: 25.0°C (77°F)
Dewpoint: 24.0°C (75°F) [RH = 94%]
Pressure (altimeter): 29.76 inches Hg (1008.0 mb)
Winds: from the E (90 degrees) at 6 MPH (5 knots; 2.6 m/s)
Visibility: 6 or more miles (10+ km)
Ceiling: 2500 feet AGL
Clouds: few clouds at 800 feet AGL
broken clouds at 2500 feet AGL
broken clouds at 9000 feet AGL
Weather: -SHRA  (light rain showers)

METAR text: RCSS 231330Z 11006KT 080V140 9999 -SHRA FEW006 SCT020 BKN050 25/24 Q1008 NOSIG RMK A2977
Conditions at: RCSS (SUNGSHAN/TAIPEI , TW) observed 1330 UTC 23 June 2019
Temperature: 25.0°C (77°F)
Dewpoint: 24.0°C (75°F) [RH = 94%]
Pressure (altimeter): 29.76 inches Hg (1008.0 mb)
Winds: from the ESE (110 degrees) at 7 MPH (6 knots; 3.1 m/s)
Visibility: 6 or more miles (10+ km)
Ceiling: 5000 feet AGL
Clouds: few clouds at 600 feet AGL
scattered clouds at 2000 feet AGL
broken clouds at 5000 feet AGL
Weather: -SHRA  (light rain showers)

METAR text: RCSS 231300Z 09006KT 9999 -SHRA FEW006 SCT017 BKN050 25/24 Q1007 NOSIG RMK A2975 RA AMT 0.6MM
Conditions at: RCSS (SUNGSHAN/TAIPEI , TW) observed 1300 UTC 23 June 2019
Temperature: 25.0°C (77°F)
Dewpoint: 24.0°C (75°F) [RH = 94%]
Pressure (altimeter): 29.73 inches Hg (1007.0 mb)
Winds: from the E (90 degrees) at 7 MPH (6 knots; 3.1 m/s)
Visibility: 6 or more miles (10+ km)
Ceiling: 5000 feet AGL
Clouds: few clouds at 600 feet AGL
scattered clouds at 1700 feet AGL
broken clouds at 5000 feet AGL
Weather: -SHRA  (light rain showers)

METAR text: RCSS 231230Z 09005KT 9999 -SHRA FEW006 BKN017 BKN035 25/24 Q1007 NOSIG RMK A2975
Conditions at: RCSS (SUNGSHAN/TAIPEI , TW) observed 1230 UTC 23 June 2019
Temperature: 25.0°C (77°F)
Dewpoint: 24.0°C (75°F) [RH = 94%]
Pressure (altimeter): 29.73 inches Hg (1007.0 mb)
Winds: from the E (90 degrees) at 6 MPH (5 knots; 2.6 m/s)
Visibility: 6 or more miles (10+ km)
Ceiling: 1700 feet AGL
Clouds: few clouds at 600 feet AGL
broken clouds at 1700 feet AGL
broken clouds at 3500 feet AGL
Weather: -SHRA  (light rain showers)

METAR text: RCSS 231200Z 11003KT 9999 -SHRA FEW005 BKN017 BKN035 25/24 Q1007 RESHRA NOSIG RMK A2975 RA AMT 5.2MM
Conditions at: RCSS (SUNGSHAN/TAIPEI , TW) observed 1200 UTC 23 June 2019
Temperature: 25.0°C (77°F)
Dewpoint: 24.0°C (75°F) [RH = 94%]
Pressure (altimeter): 29.73 inches Hg (1007.0 mb)
Winds: from the ESE (110 degrees) at 3 MPH (3 knots; 1.5 m/s)
Visibility: 6 or more miles (10+ km)
Ceiling: 1700 feet AGL
Clouds: few clouds at 500 feet AGL
broken clouds at 1700 feet AGL
broken clouds at 3500 feet AGL
Weather: -SHRA  (light rain showers)

METAR text: RCSS 231143Z 13003KT 100V160 5000 -SHRA SCT005 BKN016 BKN035 25/24 Q1007 RESHRA NOSIG RMK A2975
Conditions at: RCSS (SUNGSHAN/TAIPEI , TW) observed 1143 UTC 23 June 2019
Temperature: 25.0°C (77°F)
Dewpoint: 24.0°C (75°F) [RH = 94%]
Pressure (altimeter): 29.73 inches Hg (1007.0 mb)
Winds: from the SE (130 degrees) at 3 MPH (3 knots; 1.5 m/s)
Visibility: 3 miles ( 5 km)
Ceiling: 1600 feet AGL
Clouds: scattered clouds at 500 feet AGL
broken clouds at 1600 feet AGL
broken clouds at 3500 feet AGL
Weather: -SHRA  (light rain showers)

METAR text: RCSS 231130Z VRB02KT 3200 SHRA SCT005 BKN016 BKN035 25/24 Q1007 NOSIG RMK A2975
Conditions at: RCSS (SUNGSHAN/TAIPEI , TW) observed 1130 UTC 23 June 2019
Temperature: 25.0°C (77°F)
Dewpoint: 24.0°C (75°F) [RH = 94%]
Pressure (altimeter): 29.73 inches Hg (1007.0 mb)
Winds: variable direction winds at 2 MPH (2 knots; 1.0 m/s)
Visibility: 1.99 miles (3.20 km)
Ceiling: 1600 feet AGL
Clouds: scattered clouds at 500 feet AGL
broken clouds at 1600 feet AGL
broken clouds at 3500 feet AGL
Weather: SHRA  (rain showers)

METAR text: RCSS 231100Z 03003KT 360V060 3800 SHRA SCT006 BKN016 BKN035 25/24 Q1007 NOSIG RMK A2974 RA AMT 13.4MM
Conditions at: RCSS (SUNGSHAN/TAIPEI , TW) observed 1100 UTC 23 June 2019
Temperature: 25.0°C (77°F)
Dewpoint: 24.0°C (75°F) [RH = 94%]
Pressure (altimeter): 29.73 inches Hg (1007.0 mb)
Winds: from the NNE (30 degrees) at 3 MPH (3 knots; 1.5 m/s)
Visibility: 2.36 miles (3.80 km)
Ceiling: 1600 feet AGL
Clouds: scattered clouds at 600 feet AGL
broken clouds at 1600 feet AGL
broken clouds at 3500 feet AGL
Weather: SHRA  (rain showers)

METAR text: RCSS 231043Z VRB02KT 3000 SHRA SCT005 BKN014 OVC035 25/24 Q1006 NOSIG RMK A2973
Conditions at: RCSS (SUNGSHAN/TAIPEI , TW) observed 1043 UTC 23 June 2019
Temperature: 25.0°C (77°F)
Dewpoint: 24.0°C (75°F) [RH = 94%]
Pressure (altimeter): 29.70 inches Hg (1006.0 mb)
Winds: variable direction winds at 2 MPH (2 knots; 1.0 m/s)
Visibility: 1.86 miles (2.99 km)
Ceiling: 1400 feet AGL
Clouds: scattered clouds at 500 feet AGL
broken clouds at 1400 feet AGL
overcast cloud deck at 3500 feet AGL
Weather: SHRA  (rain showers)

METAR text: RCSS 231030Z VRB03KT 2500 SHRA SCT004 BKN012 OVC030 26/25 Q1006 NOSIG RMK A2973
Conditions at: RCSS (SUNGSHAN/TAIPEI , TW) observed 1030 UTC 23 June 2019
Temperature: 26.0°C (79°F)
Dewpoint: 25.0°C (77°F) [RH = 94%]
Pressure (altimeter): 29.70 inches Hg (1006.0 mb)
Winds: variable direction winds at 3 MPH (3 knots; 1.5 m/s)
Visibility: 1.55 miles (2.49 km)
Ceiling: 1200 feet AGL
Clouds: scattered clouds at 400 feet AGL
broken clouds at 1200 feet AGL
overcast cloud deck at 3000 feet AGL
Weather: SHRA  (rain showers)

METAR text: RCSS 231025Z VRB03KT 2800 SHRA SCT005 BKN012 OVC030 26/25 Q1006 NOSIG RMK A2973
Conditions at: RCSS (SUNGSHAN/TAIPEI , TW) observed 1025 UTC 23 June 2019
Temperature: 26.0°C (79°F)
Dewpoint: 25.0°C (77°F) [RH = 94%]
Pressure (altimeter): 29.70 inches Hg (1006.0 mb)
Winds: variable direction winds at 3 MPH (3 knots; 1.5 m/s)
Visibility: 1.74 miles (2.80 km)
Ceiling: 1200 feet AGL
Clouds: scattered clouds at 500 feet AGL
broken clouds at 1200 feet AGL
overcast cloud deck at 3000 feet AGL
Weather: SHRA  (rain showers)

METAR text: RCSS 231017Z VRB03KT 5000 SHRA SCT006 BKN014 OVC032 26/25 Q1006 NOSIG RMK A2972
Conditions at: RCSS (SUNGSHAN/TAIPEI , TW) observed 1017 UTC 23 June 2019
Temperature: 26.0°C (79°F)
Dewpoint: 25.0°C (77°F) [RH = 94%]
Pressure (altimeter): 29.70 inches Hg (1006.0 mb)
Winds: variable direction winds at 3 MPH (3 knots; 1.5 m/s)
Visibility: 3 miles ( 5 km)
Ceiling: 1400 feet AGL
Clouds: scattered clouds at 600 feet AGL
broken clouds at 1400 feet AGL
overcast cloud deck at 3200 feet AGL
Weather: SHRA  (rain showers)

METAR text: RCSS 231010Z 34004KT 300V050 3000 SHRA SCT005 BKN014 OVC032 26/25 Q1006 NOSIG RMK A2971
Conditions at: RCSS (SUNGSHAN/TAIPEI , TW) observed 1010 UTC 23 June 2019
Temperature: 26.0°C (79°F)
Dewpoint: 25.0°C (77°F) [RH = 94%]
Pressure (altimeter): 29.70 inches Hg (1006.0 mb)
Winds: from the NNW (340 degrees) at 5 MPH (4 knots; 2.1 m/s)
Visibility: 1.86 miles (2.99 km)
Ceiling: 1400 feet AGL
Clouds: scattered clouds at 500 feet AGL
broken clouds at 1400 feet AGL
overcast cloud deck at 3200 feet AGL
Weather: SHRA  (rain showers)

METAR text: RCSS 231002Z VRB03KT 2500 +SHRA SCT004 BKN012 OVC030 26/25 Q1006 NOSIG RMK A2972
Conditions at: RCSS (SUNGSHAN/TAIPEI , TW) observed 1002 UTC 23 June 2019
Temperature: 26.0°C (79°F)
Dewpoint: 25.0°C (77°F) [RH = 94%]
Pressure (altimeter): 29.70 inches Hg (1006.0 mb)
Winds: variable direction winds at 3 MPH (3 knots; 1.5 m/s)
Visibility: 1.55 miles (2.49 km)
Ceiling: 1200 feet AGL
Clouds: scattered clouds at 400 feet AGL
broken clouds at 1200 feet AGL
overcast cloud deck at 3000 feet AGL
Weather: +SHRA  (heavy rain showers)

METAR text: RCSS 231000Z VRB02KT 4000 SHRA SCT006 BKN016 OVC032 26/25 Q1006 NOSIG RMK A2972 RA AMT 8.2MM
Conditions at: RCSS (SUNGSHAN/TAIPEI , TW) observed 1000 UTC 23 June 2019
Temperature: 26.0°C (79°F)
Dewpoint: 25.0°C (77°F) [RH = 94%]
Pressure (altimeter): 29.70 inches Hg (1006.0 mb)
Winds: variable direction winds at 2 MPH (2 knots; 1.0 m/s)
Visibility: 2.49 miles (4.01 km)
Ceiling: 1600 feet AGL
Clouds: scattered clouds at 600 feet AGL
broken clouds at 1600 feet AGL
overcast cloud deck at 3200 feet AGL
Weather: SHRA  (rain showers)

METAR text: RCSS 230941Z VRB02KT 5000 SHRA SCT008 BKN020 OVC040 26/25 Q1005 WS R10 NOSIG RMK A2970
Conditions at: RCSS (SUNGSHAN/TAIPEI , TW) observed 0941 UTC 23 June 2019
Temperature: 26.0°C (79°F)
Dewpoint: 25.0°C (77°F) [RH = 94%]
Pressure (altimeter): 29.68 inches Hg (1005.0 mb)
Winds: variable direction winds at 2 MPH (2 knots; 1.0 m/s)
Visibility: 3 miles ( 5 km)
Ceiling: 2000 feet AGL
Clouds: scattered clouds at 800 feet AGL
broken clouds at 2000 feet AGL
overcast cloud deck at 4000 feet AGL
Weather: SHRA  (rain showers)

METAR text: RCSS 230933Z 01003KT 290V100 3000 SHRA SCT004 BKN015 FEW018CB OVC035 26/25 Q1005 WS R10 NOSIG RMK CB NW-N A2970
Conditions at: RCSS (SUNGSHAN/TAIPEI , TW) observed 0933 UTC 23 June 2019
Temperature: 26.0°C (79°F)
Dewpoint: 25.0°C (77°F) [RH = 94%]
Pressure (altimeter): 29.68 inches Hg (1005.0 mb)
Winds: from the N (10 degrees) at 3 MPH (3 knots; 1.5 m/s)
Visibility: 1.86 miles (2.99 km)
Ceiling: 1500 feet AGL
Clouds: scattered clouds at 400 feet AGL
broken clouds at 1500 feet AGL
few clouds at 1800 feet AGL
overcast cloud deck at 3500 feet AGL
Weather: SHRA  (rain showers)

METAR text: RCSS 230930Z VRB02KT 2200 +SHRA SCT003 BKN012 FEW015CB OVC030 26/25 Q1005 WS R10 NOSIG RMK CB NW-N A2970
Conditions at: RCSS (SUNGSHAN/TAIPEI , TW) observed 0930 UTC 23 June 2019
Temperature: 26.0°C (79°F)
Dewpoint: 25.0°C (77°F) [RH = 94%]
Pressure (altimeter): 29.68 inches Hg (1005.0 mb)
Winds: variable direction winds at 2 MPH (2 knots; 1.0 m/s)
Visibility: 1.37 miles (2.20 km)
Ceiling: 1200 feet AGL
Clouds: scattered clouds at 300 feet AGL
broken clouds at 1200 feet AGL
few clouds at 1500 feet AGL
overcast cloud deck at 3000 feet AGL
Weather: +SHRA  (heavy rain showers)

METAR text: RCSS 230927Z VRB03KT 2800 +SHRA SCT003 BKN012 FEW015CB OVC030 26/25 Q1005 WS R10 NOSIG RMK CB NW-N A2970
Conditions at: RCSS (SUNGSHAN/TAIPEI , TW) observed 0927 UTC 23 June 2019
Temperature: 26.0°C (79°F)
Dewpoint: 25.0°C (77°F) [RH = 94%]
Pressure (altimeter): 29.68 inches Hg (1005.0 mb)
Winds: variable direction winds at 3 MPH (3 knots; 1.5 m/s)
Visibility: 1.74 miles (2.80 km)
Ceiling: 1200 feet AGL
Clouds: scattered clouds at 300 feet AGL
broken clouds at 1200 feet AGL
few clouds at 1500 feet AGL
overcast cloud deck at 3000 feet AGL
Weather: +SHRA  (heavy rain showers)

METAR text: RCSS 230919Z VRB03KT 4500 SHRA FEW006 BKN018 BKN050 27/25 Q1005 WS R10 NOSIG RMK A2970
Conditions at: RCSS (SUNGSHAN/TAIPEI , TW) observed 0919 UTC 23 June 2019
Temperature: 27.0°C (81°F)
Dewpoint: 25.0°C (77°F) [RH = 89%]
Pressure (altimeter): 29.68 inches Hg (1005.0 mb)
Winds: variable direction winds at 3 MPH (3 knots; 1.5 m/s)
Visibility: 2.80 miles (4.51 km)
Ceiling: 1800 feet AGL
Clouds: few clouds at 600 feet AGL
broken clouds at 1800 feet AGL
broken clouds at 5000 feet AGL
Weather: SHRA  (rain showers)

METAR text: RCSS 230909Z 27004KT 240V320 6000 -SHRA FEW008 BKN020 BKN060 27/25 Q1005 WS R10 NOSIG RMK A2969
Conditions at: RCSS (SUNGSHAN/TAIPEI , TW) observed 0909 UTC 23 June 2019
Temperature: 27.0°C (81°F)
Dewpoint: 25.0°C (77°F) [RH = 89%]
Pressure (altimeter): 29.68 inches Hg (1005.0 mb)
Winds: from the W (270 degrees) at 5 MPH (4 knots; 2.1 m/s)
Visibility: 4 miles ( 6 km)
Ceiling: 2000 feet AGL
Clouds: few clouds at 800 feet AGL
broken clouds at 2000 feet AGL
broken clouds at 6000 feet AGL
Weather: -SHRA  (light rain showers)

METAR text: RCSS 230900Z 27004KT 8000 -SHRA FEW008 BKN020 BKN060 27/25 Q1005 NOSIG RMK A2970
Conditions at: RCSS (SUNGSHAN/TAIPEI , TW) observed 0900 UTC 23 June 2019
Temperature: 27.0°C (81°F)
Dewpoint: 25.0°C (77°F) [RH = 89%]
Pressure (altimeter): 29.68 inches Hg (1005.0 mb)
Winds: from the W (270 degrees) at 5 MPH (4 knots; 2.1 m/s)
Visibility: 5 miles ( 8 km)
Ceiling: 2000 feet AGL
Clouds: few clouds at 800 feet AGL
broken clouds at 2000 feet AGL
broken clouds at 6000 feet AGL
Weather: -SHRA  (light rain showers)

METAR text: RCSS 230830Z VRB02KT 9999 -SHRA FEW008 SCT020 BKN080 27/25 Q1004 NOSIG RMK A2965
Conditions at: RCSS (SUNGSHAN/TAIPEI , TW) observed 0830 UTC 23 June 2019
Temperature: 27.0°C (81°F)
Dewpoint: 25.0°C (77°F) [RH = 89%]
Pressure (altimeter): 29.65 inches Hg (1004.0 mb)
Winds: variable direction winds at 2 MPH (2 knots; 1.0 m/s)
Visibility: 6 or more miles (10+ km)
Ceiling: 8000 feet AGL
Clouds: few clouds at 800 feet AGL
scattered clouds at 2000 feet AGL
broken clouds at 8000 feet AGL
Weather: -SHRA  (light rain showers)

METAR text: RCSS 230800Z 29004KT 240V040 9999 -SHRA FEW008 SCT022 BKN070 27/25 Q1004 RESHRA NOSIG RMK A2966 RA AMT 2.8MM
Conditions at: RCSS (SUNGSHAN/TAIPEI , TW) observed 0800 UTC 23 June 2019
Temperature: 27.0°C (81°F)
Dewpoint: 25.0°C (77°F) [RH = 89%]
Pressure (altimeter): 29.65 inches Hg (1004.0 mb)
Winds: from the WNW (290 degrees) at 5 MPH (4 knots; 2.1 m/s)
Visibility: 6 or more miles (10+ km)
Ceiling: 7000 feet AGL
Clouds: few clouds at 800 feet AGL
scattered clouds at 2200 feet AGL
broken clouds at 7000 feet AGL
Weather: -SHRA  (light rain showers)

METAR text: RCSS 230746Z 30004KT 270V360 8000 -SHRA FEW008 BKN022 BKN050 26/25 Q1004 RESHRA NOSIG RMK A2966
Conditions at: RCSS (SUNGSHAN/TAIPEI , TW) observed 0746 UTC 23 June 2019
Temperature: 26.0°C (79°F)
Dewpoint: 25.0°C (77°F) [RH = 94%]
Pressure (altimeter): 29.65 inches Hg (1004.0 mb)
Winds: from the WNW (300 degrees) at 5 MPH (4 knots; 2.1 m/s)
Visibility: 5 miles ( 8 km)
Ceiling: 2200 feet AGL
Clouds: few clouds at 800 feet AGL
broken clouds at 2200 feet AGL
broken clouds at 5000 feet AGL
Weather: -SHRA  (light rain showers)

METAR text: RCSS 230737Z 28004KT 4800 SHRA FEW008 BKN020 BKN045 26/25 Q1004 NOSIG RMK A2967
Conditions at: RCSS (SUNGSHAN/TAIPEI , TW) observed 0737 UTC 23 June 2019
Temperature: 26.0°C (79°F)
Dewpoint: 25.0°C (77°F) [RH = 94%]
Pressure (altimeter): 29.65 inches Hg (1004.0 mb)
Winds: from the W (280 degrees) at 5 MPH (4 knots; 2.1 m/s)
Visibility: 2.98 miles (4.80 km)
Ceiling: 2000 feet AGL
Clouds: few clouds at 800 feet AGL
broken clouds at 2000 feet AGL
broken clouds at 4500 feet AGL
Weather: SHRA  (rain showers)

METAR text: RCSS 230730Z 28005KT 250V330 7000 -SHRA FEW010 BKN022 BKN050 27/25 Q1004 NOSIG RMK A2967
Conditions at: RCSS (SUNGSHAN/TAIPEI , TW) observed 0730 UTC 23 June 2019
Temperature: 27.0°C (81°F)
Dewpoint: 25.0°C (77°F) [RH = 89%]
Pressure (altimeter): 29.65 inches Hg (1004.0 mb)
Winds: from the W (280 degrees) at 6 MPH (5 knots; 2.6 m/s)
Visibility: 4 miles ( 7 km)
Ceiling: 2200 feet AGL
Clouds: few clouds at 1000 feet AGL
broken clouds at 2200 feet AGL
broken clouds at 5000 feet AGL
Weather: -SHRA  (light rain showers)

METAR text: RCSS 230700Z 29006KT 240V330 9999 -SHRA FEW008 BKN022 BKN050 26/25 Q1004 RESHRA NOSIG RMK A2967 RA AMT 4.2MM
Conditions at: RCSS (SUNGSHAN/TAIPEI , TW) observed 0700 UTC 23 June 2019
Temperature: 26.0°C (79°F)
Dewpoint: 25.0°C (77°F) [RH = 94%]
Pressure (altimeter): 29.65 inches Hg (1004.0 mb)
Winds: from the WNW (290 degrees) at 7 MPH (6 knots; 3.1 m/s)
Visibility: 6 or more miles (10+ km)
Ceiling: 2200 feet AGL
Clouds: few clouds at 800 feet AGL
broken clouds at 2200 feet AGL
broken clouds at 5000 feet AGL
Weather: -SHRA  (light rain showers)

METAR text: RCSS 230653Z 28005KT 240V320 8000 -SHRA SCT008 BKN018 BKN045 26/25 Q1004 RESHRA NOSIG RMK A2967
Conditions at: RCSS (SUNGSHAN/TAIPEI , TW) observed 0653 UTC 23 June 2019
Temperature: 26.0°C (79°F)
Dewpoint: 25.0°C (77°F) [RH = 94%]
Pressure (altimeter): 29.65 inches Hg (1004.0 mb)
Winds: from the W (280 degrees) at 6 MPH (5 knots; 2.6 m/s)
Visibility: 5 miles ( 8 km)
Ceiling: 1800 feet AGL
Clouds: scattered clouds at 800 feet AGL
broken clouds at 1800 feet AGL
broken clouds at 4500 feet AGL
Weather: -SHRA  (light rain showers)

METAR text: RCSS 230637Z 29007KT 260V320 5000 SHRA SCT006 BKN015 BKN035 26/25 Q1004 NOSIG RMK A2967
Conditions at: RCSS (SUNGSHAN/TAIPEI , TW) observed 0637 UTC 23 June 2019
Temperature: 26.0°C (79°F)
Dewpoint: 25.0°C (77°F) [RH = 94%]
Pressure (altimeter): 29.65 inches Hg (1004.0 mb)
Winds: from the WNW (290 degrees) at 8 MPH (7 knots; 3.6 m/s)
Visibility: 3 miles ( 5 km)
Ceiling: 1500 feet AGL
Clouds: scattered clouds at 600 feet AGL
broken clouds at 1500 feet AGL
broken clouds at 3500 feet AGL
Weather: SHRA  (rain showers)

METAR text: RCSS 230630Z 29008KT 260V320 3200 +SHRA SCT005 BKN012 BKN035 27/25 Q1004 NOSIG RMK A2967
Conditions at: RCSS (SUNGSHAN/TAIPEI , TW) observed 0630 UTC 23 June 2019
Temperature: 27.0°C (81°F)
Dewpoint: 25.0°C (77°F) [RH = 89%]
Pressure (altimeter): 29.65 inches Hg (1004.0 mb)
Winds: from the WNW (290 degrees) at 9 MPH (8 knots; 4.1 m/s)
Visibility: 1.99 miles (3.20 km)
Ceiling: 1200 feet AGL
Clouds: scattered clouds at 500 feet AGL
broken clouds at 1200 feet AGL
broken clouds at 3500 feet AGL
Weather: +SHRA  (heavy rain showers)

METAR text: RCSS 230627Z 29008KT 260V320 3200 +SHRA SCT005 BKN012 BKN035 27/25 Q1004 NOSIG RMK 30008KT/R10 A2967
Conditions at: RCSS (SUNGSHAN/TAIPEI , TW) observed 0627 UTC 23 June 2019
Temperature: 27.0°C (81°F)
Dewpoint: 25.0°C (77°F) [RH = 89%]
Pressure (altimeter): 29.65 inches Hg (1004.0 mb)
Winds: from the WNW (290 degrees) at 9 MPH (8 knots; 4.1 m/s)
Visibility: 1.99 miles (3.20 km)
Ceiling: 1200 feet AGL
Clouds: scattered clouds at 500 feet AGL
broken clouds at 1200 feet AGL
broken clouds at 3500 feet AGL
Weather: +SHRA  (heavy rain showers)

METAR text: RCSS 230622Z 29008KT 4500 SHRA FEW006 BKN014 BKN040 27/26 Q1004 NOSIG RMK 30008KT/R10 A2966
Conditions at: RCSS (SUNGSHAN/TAIPEI , TW) observed 0622 UTC 23 June 2019
Temperature: 27.0°C (81°F)
Dewpoint: 26.0°C (79°F) [RH = 94%]
Pressure (altimeter): 29.65 inches Hg (1004.0 mb)
Winds: from the WNW (290 degrees) at 9 MPH (8 knots; 4.1 m/s)
Visibility: 2.80 miles (4.51 km)
Ceiling: 1400 feet AGL
Clouds: few clouds at 600 feet AGL
broken clouds at 1400 feet AGL
broken clouds at 4000 feet AGL
Weather: SHRA  (rain showers)

METAR text: RCSS 230600Z 29009KT 9999 -SHRA FEW008 BKN018 BKN080 28/26 Q1004 NOSIG RMK 28008KT/R10 A2966 RA AMT 0.2MM
Conditions at: RCSS (SUNGSHAN/TAIPEI , TW) observed 0600 UTC 23 June 2019
Temperature: 28.0°C (82°F)
Dewpoint: 26.0°C (79°F) [RH = 89%]
Pressure (altimeter): 29.65 inches Hg (1004.0 mb)
Winds: from the WNW (290 degrees) at 10 MPH (9 knots; 4.6 m/s)
Visibility: 6 or more miles (10+ km)
Ceiling: 1800 feet AGL
Clouds: few clouds at 800 feet AGL
broken clouds at 1800 feet AGL
broken clouds at 8000 feet AGL
Weather: -SHRA  (light rain showers)

METAR text: RCSS 230530Z 29012KT 260V320 9999 -SHRA FEW008 BKN018 BKN080 28/26 Q1004 NOSIG RMK 29012KT/R10 A2966
Conditions at: RCSS (SUNGSHAN/TAIPEI , TW) observed 0530 UTC 23 June 2019
Temperature: 28.0°C (82°F)
Dewpoint: 26.0°C (79°F) [RH = 89%]
Pressure (altimeter): 29.65 inches Hg (1004.0 mb)
Winds: from the WNW (290 degrees) at 14 MPH (12 knots; 6.2 m/s)
Visibility: 6 or more miles (10+ km)
Ceiling: 1800 feet AGL
Clouds: few clouds at 800 feet AGL
broken clouds at 1800 feet AGL
broken clouds at 8000 feet AGL
Weather: -SHRA  (light rain showers)

Forecast for: RCSS (SUNGSHAN/TAIPEI , TW)
Text: TAF RCSS 241700Z 2418/2518 09005KT 9999 FEW012 BKN032
Forecast period: 1800 UTC 24 June 2019 to 1800 UTC 25 June 2019
Forecast type: FROM: standard forecast or significant change
Winds: from the E (90 degrees) at 6 MPH (5 knots; 2.6 m/s)
Visibility: 6 or more miles 10+ km)
Ceiling: 3200 feet AGL
Clouds: few clouds at 1200 feet AGL
broken clouds at 3200 feet AGL
Weather: no significant weather forecast for this period
Text: TEMPO 2422/2504 28005KT
Forecast period: 2200 UTC 24 June 2019 to 0400 UTC 25 June 2019
Forecast type: TEMPORARY: The following changes expected for less than half the time period
Winds: from the W (280 degrees) at 6 MPH (5 knots; 2.6 m/s)
Visibility: missing
Ceiling: unknown
Clouds: missing
Weather: no significant weather forecast for this period
Text: TEMPO 2506/2510 12010KT 2500 TSRA SCT006 BKN012 FEW015CB BKN030
Forecast period: 0600 to 1000 UTC 25 June 2019
Forecast type: TEMPORARY: The following changes expected for less than half the time period
Winds: from the ESE (120 degrees) at 12 MPH (10 knots; 5.1 m/s)
Visibility: 1.55 miles (2.49 km)
Ceiling: 1200 feet AGL
Clouds: scattered clouds at 600 feet AGL
broken clouds at 1200 feet AGL
few clouds at 1500 feet AGL
Weather: TSRA  (rain associated with thunderstorm(s))
Text: TEMPO 2511/2516 31005KT
Forecast period: 1100 to 1600 UTC 25 June 2019
Forecast type: TEMPORARY: The following changes expected for less than half the time period
Winds: from the NW (310 degrees) at 6 MPH (5 knots; 2.6 m/s)
Visibility: missing
Ceiling: unknown
Clouds: missing
Weather: no significant weather forecast for this period